Time;durP1;ratioP1;P1;durP2;ratioP2;P2;SDS_P1;SDS_P2;PMS_P1;PMS_P2;Temp;Humidity;BMP_temperature;BMP_pressure;BME280_temperature;BME280_humidity;BME280_pressure;Samples;Min_cycle;Max_cycle;Signal;HPM_P1;HPM_P2
2023/04/04 05:02:56;;;;;;;;;2.33;1.33;;;;;10.19;42.92;68068.16;4886978;29;45426;-83
2023/04/04 05:05:22;;;;;;;;;1.00;1.00;;;;;10.06;43.07;68071.84;4898769;28;45941;-83
2023/04/04 05:07:47;;;;;;;;;1.33;1.33;;;;;10.21;43.08;68054.06;4891884;29;45379;-83
2023/04/04 05:13:34;;;;;;;;;1.00;1.00;;;;;9.99;42.92;67994.91;4898472;29;45500;-83
2023/04/04 05:16:00;;;;;;;;;3.00;2.00;;;;;9.99;42.92;67997.53;4899810;28;45577;-83
2023/04/04 05:18:26;;;;;;;;;1.67;1.67;;;;;10.13;43.02;68068.97;4898490;29;47708;-83
2023/04/04 05:20:54;;;;;;;;;1.00;1.00;;;;;9.71;42.82;67997.31;4900335;29;45326;-83
2023/04/04 05:23:21;;;;;;;;;1.00;1.00;;;;;10.10;43.02;68057.50;4897880;29;45245;-83
2023/04/04 05:25:50;;;;;;;;;2.00;2.00;;;;;10.05;43.42;68052.19;4889269;29;45315;-81
2023/04/04 05:28:16;;;;;;;;;2.00;2.00;;;;;9.88;43.10;68040.00;4900352;29;45734;-82
2023/04/04 05:30:41;;;;;;;;;2.00;1.67;;;;;9.74;43.33;68029.34;4900400;29;45606;-82
2023/04/04 05:33:07;;;;;;;;;0.00;0.00;;;;;9.97;43.13;68008.38;4895835;28;45482;-82
2023/04/04 05:35:32;;;;;;;;;3.00;1.33;;;;;10.02;43.59;68050.69;4900581;29;45328;-82
2023/04/04 05:37:57;;;;;;;;;2.00;2.00;;;;;9.98;43.43;68054.47;4900243;28;46883;-82
2023/04/04 05:40:23;;;;;;;;;2.00;2.00;;;;;9.98;43.31;68056.53;4900342;28;45369;-81
2023/04/04 05:42:59;;;;;;;;;2.00;2.00;;;;;9.96;43.47;68060.03;4900674;29;45340;-82
2023/04/04 05:45:24;;;;;;;;;5.00;2.00;;;;;9.59;43.04;68188.44;4900532;28;45593;-84
2023/04/04 05:47:50;;;;;;;;;5.33;5.33;;;;;9.68;43.03;68043.94;4897353;28;45347;-83
2023/04/04 05:50:15;;;;;;;;;4.67;4.67;;;;;9.93;43.43;68006.31;4894637;29;45480;-81
2023/04/04 05:52:41;;;;;;;;;3.00;3.00;;;;;9.69;43.03;68015.50;4885545;28;45376;-82
2023/04/04 05:55:07;;;;;;;;;2.33;2.33;;;;;9.90;43.04;68027.13;4896209;29;45450;-84
2023/04/04 05:57:32;;;;;;;;;2.00;2.00;;;;;9.55;43.19;67983.09;4886387;29;46193;-83
2023/04/04 05:59:58;;;;;;;;;3.67;2.00;;;;;9.75;43.40;67985.63;4898626;28;45422;-84
2023/04/04 06:05:26;;;;;;;;;3.00;3.00;;;;;8.31;43.09;67856.00;4893656;29;45549;-83
2023/04/04 06:07:51;;;;;;;;;3.00;3.00;;;;;9.83;43.28;68024.13;4887131;29;46871;-85
2023/04/04 06:10:35;;;;;;;;;2.00;2.00;;;;;9.26;43.08;67990.19;4898507;28;45336;-85
2023/04/04 06:13:00;;;;;;;;;3.00;3.00;;;;;9.82;43.24;67949.00;4893649;29;45350;-83
2023/04/04 06:15:25;;;;;;;;;2.00;2.00;;;;;9.83;42.92;68034.09;4898324;29;50113;-82
2023/04/04 06:17:51;;;;;;;;;4.00;4.00;;;;;9.45;43.26;67990.34;4898715;28;49100;-82
2023/04/04 06:20:18;;;;;;;;;2.00;2.00;;;;;9.90;43.46;68027.13;4899407;28;45305;-84
2023/04/04 06:22:43;;;;;;;;;2.33;2.33;;;;;9.92;43.60;68002.47;4896819;29;45491;-82
2023/04/04 06:25:09;;;;;;;;;2.00;2.00;;;;;9.88;43.42;68191.13;4899045;29;45530;-85
2023/04/04 06:27:35;;;;;;;;;1.00;1.00;;;;;9.57;43.46;68003.94;4889496;29;46263;-85
2023/04/04 06:30:00;;;;;;;;;3.00;3.00;;;;;9.86;43.03;68035.00;4902330;29;45331;-85
2023/04/04 06:32:26;;;;;;;;;2.33;2.33;;;;;9.48;43.18;67999.19;4898665;28;45603;-87
2023/04/04 06:34:52;;;;;;;;;3.00;3.00;;;;;9.76;43.14;68049.56;4896373;29;45474;-84
2023/04/04 06:37:17;;;;;;;;;4.33;3.00;;;;;9.69;43.35;68018.13;4900920;28;46404;-82
2023/04/04 06:39:43;;;;;;;;;5.00;3.00;;;;;9.79;43.38;68000.34;4903039;28;45458;-83
2023/04/04 06:42:09;;;;;;;;;3.00;3.00;;;;;9.74;43.26;68010.84;4901424;29;45533;-83
2023/04/04 06:44:34;;;;;;;;;3.00;3.00;;;;;9.77;43.14;68021.72;4899282;29;45303;-83
2023/04/04 06:47:00;;;;;;;;;4.67;3.00;;;;;9.88;43.06;68003.03;4887917;29;47111;-83
2023/04/04 06:49:25;;;;;;;;;4.00;3.00;;;;;9.68;43.54;67993.19;4901774;29;45372;-83
2023/04/04 06:51:51;;;;;;;;;3.33;3.00;;;;;9.76;43.39;68015.25;4901140;28;45336;-83
2023/04/04 06:54:17;;;;;;;;;3.00;3.00;;;;;10.00;43.54;68050.97;4895948;29;45405;-83
2023/04/04 06:56:42;;;;;;;;;3.00;3.00;;;;;9.97;43.00;68045.34;4895232;29;46254;-84
2023/04/04 06:59:10;;;;;;;;;3.00;3.00;;;;;9.81;43.29;68063.41;4884198;29;45826;-79
2023/04/04 07:01:35;;;;;;;;;5.00;3.33;;;;;10.09;43.47;68069.50;4895257;28;45542;-81
2023/04/04 07:04:01;;;;;;;;;3.67;3.67;;;;;9.83;43.34;68005.66;4898467;28;45476;-82
2023/04/04 07:06:28;;;;;;;;;4.00;2.00;;;;;10.04;42.89;68060.97;4887278;29;46086;-81
2023/04/04 07:08:54;;;;;;;;;3.00;3.00;;;;;10.01;42.96;68034.25;4884047;29;45356;-81
2023/04/04 07:11:22;;;;;;;;;2.33;2.00;;;;;10.22;43.10;68086.94;4883854;29;45440;-81
2023/04/04 07:13:48;;;;;;;;;1.33;0.00;;;;;10.09;42.93;68040.47;4883887;29;45566;-81
2023/04/04 07:16:13;;;;;;;;;3.33;3.33;;;;;10.20;42.65;68064.03;4914061;28;47003;-81
2023/04/04 07:18:38;;;;;;;;;2.00;2.00;;;;;10.29;42.64;68068.84;4883704;29;45312;-81
2023/04/04 07:21:04;;;;;;;;;2.67;2.67;;;;;10.33;42.86;68105.28;4883554;29;45679;-80
2023/04/04 07:23:29;;;;;;;;;3.00;1.33;;;;;10.36;42.95;68079.75;4917165;28;45569;-81
2023/04/04 07:25:55;;;;;;;;;5.33;4.00;;;;;10.39;42.61;68122.94;4890059;29;45992;-81
2023/04/04 07:28:21;;;;;;;;;6.00;4.00;;;;;10.43;42.40;68105.94;4887611;29;45530;-81
2023/04/04 07:30:46;;;;;;;;;4.00;4.00;;;;;10.45;41.62;68081.88;4898434;29;45477;-81
2023/04/04 07:33:11;;;;;;;;;3.00;3.00;;;;;10.49;41.87;68089.25;4901811;29;45551;-81
2023/04/04 07:35:37;;;;;;;;;3.00;3.00;;;;;10.46;42.23;68083.06;4901772;29;49233;-81
2023/04/04 07:38:05;;;;;;;;;2.67;2.67;;;;;10.49;41.89;68115.69;4896935;29;45345;-81
2023/04/04 07:40:30;;;;;;;;;3.67;3.00;;;;;10.56;41.48;68103.41;4890250;28;45446;-81
2023/04/04 07:42:56;;;;;;;;;3.33;3.33;;;;;10.43;41.41;68211.66;4901358;29;45538;-81
2023/04/04 07:45:21;;;;;;;;;3.33;3.00;;;;;10.38;41.56;68053.03;4898330;29;45677;-85
2023/04/04 07:47:46;;;;;;;;;4.67;4.67;;;;;10.40;41.41;68071.28;4889870;29;45510;-82
2023/04/04 07:50:13;;;;;;;;;4.00;4.00;;;;;10.61;41.24;68090.22;4898848;29;45456;-82
2023/04/04 07:52:39;;;;;;;;;2.33;2.33;;;;;10.51;41.29;68086.94;4916978;28;45730;-81
2023/04/04 07:55:06;;;;;;;;;2.33;2.33;;;;;10.61;41.67;68111.38;4901651;29;47222;-82
2023/04/04 07:57:40;;;;;;;;;3.33;2.67;;;;;10.74;41.24;68110.28;4901679;29;45557;-82
2023/04/04 08:00:08;;;;;;;;;3.00;3.00;;;;;10.79;41.29;68140.00;4900823;29;45375;-82
2023/04/04 08:02:35;;;;;;;;;5.00;4.00;;;;;10.84;41.68;68150.59;4901866;29;45291;-82
2023/04/04 08:05:00;;;;;;;;;2.00;2.00;;;;;10.92;41.49;68210.34;4901770;28;46826;-82
2023/04/04 08:07:25;;;;;;;;;4.00;3.00;;;;;10.84;40.73;68127.41;4901670;29;45356;-82
2023/04/04 08:09:51;;;;;;;;;4.00;3.00;;;;;10.77;41.04;68121.78;4901818;29;45301;-82
2023/04/04 08:12:16;;;;;;;;;4.67;4.67;;;;;10.98;41.20;68146.03;4901764;29;45306;-82
2023/04/04 08:14:41;;;;;;;;;4.00;2.00;;;;;10.93;41.15;68111.63;4901508;29;49485;-83
2023/04/04 08:17:07;;;;;;;;;2.33;2.33;;;;;11.16;41.54;68130.25;4901437;29;45410;-83
2023/04/04 08:19:32;;;;;;;;;2.67;2.67;;;;;11.22;41.55;68176.47;4901867;29;45391;-83
2023/04/04 08:21:57;;;;;;;;;4.00;2.33;;;;;11.16;41.52;68185.84;4902014;29;45512;-83
2023/04/04 08:24:26;;;;;;;;;5.00;3.67;;;;;11.28;40.58;68157.09;4899496;29;64436;-83
2023/04/04 08:26:51;;;;;;;;;4.00;2.00;;;;;11.37;40.96;68186.28;4901195;29;45560;-83
2023/04/04 08:29:16;;;;;;;;;4.33;4.33;;;;;11.36;40.96;68148.03;4901544;29;45410;-83
2023/04/04 08:31:42;;;;;;;;;2.00;2.00;;;;;11.46;41.07;68177.81;4901662;29;45466;-83
2023/04/04 08:34:07;;;;;;;;;2.33;2.00;;;;;11.53;40.88;68217.28;4901578;29;45401;-83
2023/04/04 08:36:35;;;;;;;;;3.33;3.00;;;;;11.60;40.76;68220.28;4901148;29;48576;-83
2023/04/04 08:39:01;;;;;;;;;6.33;5.33;;;;;11.65;41.01;68189.13;4901694;29;45411;-83
2023/04/04 08:41:26;;;;;;;;;1.33;1.33;;;;;11.47;40.18;68194.28;4901331;29;45444;-83
2023/04/04 08:43:57;;;;;;;;;1.67;1.67;;;;;11.76;40.21;68228.63;4900888;29;47266;-83
2023/04/04 08:46:24;;;;;;;;;3.33;3.33;;;;;11.68;40.56;68245.03;4899107;29;45414;-83
2023/04/04 08:48:51;;;;;;;;;2.00;2.00;;;;;11.85;40.40;68204.25;4901400;29;45343;-83
2023/04/04 08:51:18;;;;;;;;;4.00;3.00;;;;;11.68;40.42;68211.19;4901337;29;45478;-83
2023/04/04 08:53:44;;;;;;;;;3.00;3.00;;;;;11.91;40.21;68364.44;4900942;29;45369;-83
2023/04/04 08:56:10;;;;;;;;;3.00;3.00;;;;;11.71;39.88;68265.09;4899328;29;45505;-83
2023/04/04 08:58:37;;;;;;;;;5.00;5.00;;;;;11.99;39.74;68194.34;4901284;29;45521;-83
2023/04/04 09:01:06;;;;;;;;;6.33;4.67;;;;;12.02;40.03;68229.69;4901040;29;45348;-83
2023/04/04 09:03:33;;;;;;;;;3.00;3.00;;;;;12.13;40.23;68289.25;4900901;29;45578;-84
2023/04/04 09:06:00;;;;;;;;;5.33;4.00;;;;;12.13;40.16;68210.31;4900646;29;45322;-83
2023/04/04 09:08:27;;;;;;;;;1.67;1.67;;;;;12.10;40.01;68288.91;4900850;28;45485;-83
2023/04/04 09:10:53;;;;;;;;;2.00;2.00;;;;;12.31;40.23;68246.34;4901016;29;45447;-84
2023/04/04 09:13:19;;;;;;;;;1.67;1.67;;;;;12.38;39.95;68291.72;4900739;29;45260;-83
2023/04/04 09:15:48;;;;;;;;;3.67;2.67;;;;;12.43;40.23;68292.34;4900954;29;45292;-84
2023/04/04 09:18:13;;;;;;;;;1.00;1.00;;;;;12.33;39.20;68269.91;4901132;29;45441;-83
2023/04/04 09:20:42;;;;;;;;;2.00;2.00;;;;;12.55;39.48;68309.22;4901128;29;45755;-84
2023/04/04 09:23:19;;;;;;;;;2.00;0.67;;;;;12.52;39.63;68295.06;4900891;29;47227;-83
2023/04/04 09:25:49;;;;;;;;;2.00;2.00;;;;;12.64;39.61;68330.50;4900179;29;45304;-83
2023/04/04 09:28:15;;;;;;;;;1.00;1.00;;;;;12.53;39.58;68402.34;4900751;29;45494;-83
2023/04/04 09:30:43;;;;;;;;;3.67;2.67;;;;;12.83;39.35;68336.50;4900897;29;45412;-84
2023/04/04 09:33:10;;;;;;;;;1.33;1.33;;;;;12.93;39.27;68336.56;4900409;28;46710;-84
2023/04/04 09:35:38;;;;;;;;;0.67;0.67;;;;;13.01;38.91;68336.00;4899153;29;45316;-84
2023/04/04 09:38:05;;;;;;;;;2.33;2.00;;;;;13.10;38.83;68341.34;4900583;29;45442;-84
2023/04/04 09:40:30;;;;;;;;;2.67;2.67;;;;;13.19;38.63;68361.47;4900341;29;45404;-84
2023/04/04 09:42:59;;;;;;;;;3.00;1.00;;;;;13.31;38.92;68394.28;4900429;29;45977;-84
2023/04/04 09:45:25;;;;;;;;;1.00;1.00;;;;;13.50;38.89;68402.94;4900548;29;45282;-84
2023/04/04 09:47:50;;;;;;;;;1.33;1.00;;;;;13.47;38.77;68407.94;4900663;29;45232;-84
2023/04/04 09:50:24;;;;;;;;;3.67;3.67;;;;;13.81;38.24;68463.00;4899687;29;45339;-84
2023/04/04 09:52:51;;;;;;;;;1.00;1.00;;;;;14.11;37.92;68490.03;4900579;29;45383;-84
2023/04/04 09:55:17;;;;;;;;;1.67;1.67;;;;;14.38;36.81;68531.53;4899936;29;45318;-84
2023/04/04 09:57:45;;;;;;;;;3.00;2.00;;;;;14.62;36.95;68554.09;4902283;29;45280;-84
2023/04/04 10:00:11;;;;;;;;;0.67;0.67;;;;;14.74;37.17;68567.75;4903803;29;45425;-83
2023/04/04 10:02:39;;;;;;;;;4.67;4.67;;;;;15.14;36.78;68574.69;4903101;28;46277;-85
2023/04/04 10:05:09;;;;;;;;;2.00;2.00;;;;;15.29;36.45;68604.63;4918169;28;45337;-85
2023/04/04 10:07:38;;;;;;;;;4.00;2.00;;;;;15.78;36.58;68624.31;4903758;29;45532;-84
2023/04/04 10:10:10;;;;;;;;;1.00;1.00;;;;;16.13;35.73;68704.72;4904087;29;45317;-84
2023/04/04 10:12:36;;;;;;;;;0.00;0.00;;;;;16.26;33.80;68709.50;4903487;29;46273;-84
2023/04/04 10:15:02;;;;;;;;;0.33;0.33;;;;;16.63;34.39;68765.63;4903311;29;45404;-85
2023/04/04 10:17:38;;;;;;;;;2.00;2.00;;;;;17.19;34.35;68859.84;4903449;29;45363;-84
2023/04/04 10:20:05;;;;;;;;;2.00;2.00;;;;;17.50;33.92;68870.00;4903913;29;45434;-85
2023/04/04 10:22:37;;;;;;;;;3.00;2.00;;;;;17.79;33.40;68932.72;4902716;29;46945;-85
2023/04/04 10:25:06;;;;;;;;;2.00;2.00;;;;;17.91;33.40;68858.16;4903243;29;45337;-85
2023/04/04 10:27:33;;;;;;;;;2.33;1.00;;;;;18.32;32.54;68906.34;4903420;29;45331;-85
2023/04/04 10:30:01;;;;;;;;;3.00;1.00;;;;;18.59;31.81;68985.50;4903640;29;45459;-85
2023/04/04 10:32:37;;;;;;;;;2.67;2.00;;;;;18.75;31.87;68939.63;4903124;29;45423;-85
2023/04/04 10:35:06;;;;;;;;;2.00;2.00;;;;;18.88;31.30;69080.47;4903176;29;45403;-85
2023/04/04 10:37:42;;;;;;;;;2.00;2.00;;;;;19.47;32.04;69068.56;4903100;29;45552;-85
2023/04/04 10:40:12;;;;;;;;;2.00;2.00;;;;;19.07;30.81;69017.34;4903592;29;45325;-85
2023/04/04 10:42:49;;;;;;;;;1.00;1.00;;;;;20.16;30.22;69095.94;4902905;29;46255;-85
2023/04/04 10:45:16;;;;;;;;;1.00;1.00;;;;;20.57;29.89;69118.81;4902982;29;45402;-85
2023/04/04 10:47:43;;;;;;;;;1.33;1.33;;;;;20.69;29.60;69135.22;4903153;29;45342;-86
2023/04/04 10:50:10;;;;;;;;;1.67;1.67;;;;;21.47;29.48;69234.47;4903077;29;45429;-85
2023/04/04 10:52:41;;;;;;;;;2.00;2.00;;;;;21.96;29.03;69277.63;4902124;29;47083;-85
2023/04/04 10:55:09;;;;;;;;;1.00;1.00;;;;;22.47;28.90;69337.88;4902820;29;45314;-86
2023/04/04 10:57:39;;;;;;;;;1.00;1.00;;;;;22.75;27.87;69308.69;4902933;29;45398;-85
2023/04/04 11:00:08;;;;;;;;;2.33;2.33;;;;;23.29;24.24;69287.06;4902862;29;45605;-85
2023/04/04 11:02:53;;;;;;;;;1.00;1.00;;;;;23.15;25.71;69176.56;4901873;29;47398;-86
2023/04/04 11:05:23;;;;;;;;;0.00;0.00;;;;;24.15;25.88;69325.06;4902604;29;45525;-86
2023/04/04 11:07:56;;;;;;;;;1.00;1.00;;;;;24.40;25.36;69297.47;4902357;29;45347;-86
2023/04/04 11:10:24;;;;;;;;;1.33;1.33;;;;;24.48;25.34;69328.06;4902242;29;45520;-86
2023/04/04 11:16:03;;;;;;;;;0.67;0.67;;;;;24.88;25.07;69277.13;4902009;29;45319;-86
2023/04/04 11:18:38;;;;;;;;;1.00;1.00;;;;;25.53;24.48;69396.63;4902548;29;45371;-85
2023/04/04 11:21:06;;;;;;;;;2.00;2.00;;;;;25.59;24.76;69338.19;4902295;29;45470;-86
2023/04/04 11:23:57;;;;;;;;;1.00;1.00;;;;;25.77;24.01;69350.88;4902423;29;47308;-85
2023/04/04 11:26:29;;;;;;;;;0.25;0.25;;;;;25.93;23.76;69328.72;4902226;29;45460;-86
2023/04/04 11:29:07;;;;;;;;;1.67;1.67;;;;;26.05;22.90;69348.41;4902510;29;45499;-85
2023/04/04 11:31:33;;;;;;;;;1.50;1.50;;;;;26.08;22.97;69314.03;4902610;29;45446;-86
2023/04/04 11:33:59;;;;;;;;;2.00;2.00;;;;;26.19;23.37;69348.22;4902079;29;46096;-85
2023/04/04 11:36:36;;;;;;;;;1.00;1.00;;;;;26.24;22.38;69276.13;4901739;29;45312;-85
2023/04/04 11:39:18;;;;;;;;;1.25;1.25;;;;;26.35;21.58;69256.06;4902415;29;45359;-86
2023/04/04 11:42:07;;;;;;;;;1.00;1.00;;;;;26.27;22.33;69311.63;4902491;29;45435;-86
2023/04/04 11:44:38;;;;;;;;;1.00;1.00;;;;;26.49;22.72;69291.69;4902063;28;46946;-86
2023/04/04 11:47:08;;;;;;;;;1.00;1.00;;;;;26.54;22.62;69302.47;4902088;29;45416;-86
2023/04/04 11:49:39;;;;;;;;;1.00;1.00;;;;;26.62;22.84;69286.97;4901876;29;45358;-86
2023/04/04 11:52:07;;;;;;;;;1.00;1.00;;;;;26.54;22.55;69229.25;4902530;28;45396;-86
2023/04/04 11:54:33;;;;;;;;;2.00;2.00;;;;;26.74;22.35;69334.41;4901921;29;47052;-86
2023/04/04 11:56:59;;;;;;;;;1.33;1.33;;;;;26.56;21.96;69277.13;4901892;29;45731;-85
2023/04/04 11:59:24;;;;;;;;;1.00;1.00;;;;;26.79;21.33;69282.16;4902077;29;45331;-86
2023/04/04 12:01:50;;;;;;;;;1.33;1.33;;;;;26.94;21.85;69324.41;4901949;29;45421;-86
2023/04/04 12:04:19;;;;;;;;;1.00;1.00;;;;;27.01;22.51;69270.28;4901521;29;46150;-86
2023/04/04 12:06:55;;;;;;;;;1.25;1.00;;;;;26.87;21.65;69240.69;4901864;29;45301;-86
2023/04/04 12:09:24;;;;;;;;;1.00;1.00;;;;;27.21;21.79;69303.75;4901846;29;45419;-86
2023/04/04 12:11:50;;;;;;;;;0.75;0.75;;;;;27.33;21.58;69304.44;4902220;28;45335;-86
2023/04/04 12:14:17;;;;;;;;;1.25;1.25;;;;;27.45;21.70;69277.94;4901848;29;46020;-86
2023/04/04 12:16:44;;;;;;;;;2.00;2.00;;;;;27.54;21.24;69266.31;4901556;29;45504;-86
2023/04/04 12:19:09;;;;;;;;;3.50;2.00;;;;;27.72;21.45;69319.66;4901167;29;45229;-86
2023/04/04 12:21:35;;;;;;;;;2.00;2.00;;;;;27.64;21.35;69256.44;4900726;29;45247;-86
2023/04/04 12:24:00;;;;;;;;;1.75;1.00;;;;;27.67;21.14;69289.88;4901467;29;46806;-86
2023/04/04 12:26:29;;;;;;;;;1.75;1.00;;;;;28.07;20.79;69241.03;4901627;29;45236;-86
2023/04/04 12:28:59;;;;;;;;;2.00;2.00;;;;;28.13;20.49;69234.56;4901977;29;45489;-86
2023/04/04 12:31:26;;;;;;;;;1.00;1.00;;;;;28.16;20.81;69248.41;4901807;29;45247;-86
2023/04/04 12:33:52;;;;;;;;;1.00;1.00;;;;;28.52;19.97;69219.81;4901074;29;47038;-87
2023/04/04 12:36:17;;;;;;;;;2.00;2.00;;;;;28.64;20.29;69186.59;4901265;29;45361;-87
2023/04/04 12:39:07;;;;;;;;;0.00;0.00;;;;;28.57;20.47;69252.34;4901478;29;45231;-86
2023/04/04 12:41:34;;;;;;;;;1.00;1.00;;;;;28.85;20.66;69235.97;4901680;29;45463;-87
2023/04/04 12:44:04;;;;;;;;;2.25;1.00;;;;;28.97;20.43;69208.75;4901034;29;46881;-86
2023/04/04 12:46:39;;;;;;;;;2.00;2.00;;;;;28.91;20.04;69232.16;4901263;29;45385;-87
2023/04/04 12:49:12;;;;;;;;;2.00;2.00;;;;;29.10;20.35;69166.97;4900874;29;45418;-86
2023/04/04 12:51:38;;;;;;;;;1.00;1.00;;;;;29.48;20.24;69202.00;4901462;29;45512;-87
2023/04/04 12:54:05;;;;;;;;;6.33;5.00;;;;;29.60;18.88;69173.22;4901147;29;45562;-86
2023/04/04 12:56:30;;;;;;;;;0.67;0.67;;;;;29.67;18.84;69143.38;4901081;29;45418;-86
2023/04/04 12:59:02;;;;;;;;;2.50;2.00;;;;;29.75;19.00;69181.63;4901218;29;45350;-86
2023/04/04 13:01:28;;;;;;;;;1.00;1.00;;;;;29.82;19.71;69157.78;4901162;29;45319;-87
2023/04/04 13:03:54;;;;;;;;;1.00;1.00;;;;;29.89;19.48;69173.66;4900695;29;45428;-86
2023/04/04 13:06:20;;;;;;;;;3.00;3.00;;;;;29.94;18.40;69195.94;4900842;29;45419;-86
2023/04/04 13:08:52;;;;;;;;;2.00;2.00;;;;;29.72;18.58;69110.53;4901412;29;45294;-86
2023/04/04 13:11:18;;;;;;;;;3.00;3.00;;;;;29.99;17.55;69165.81;4901154;28;45396;-86
2023/04/04 13:13:44;;;;;;;;;1.25;1.25;;;;;29.92;18.18;69203.88;4900699;29;45414;-86
2023/04/04 13:16:13;;;;;;;;;1.67;1.67;;;;;29.83;18.73;69169.88;4900616;29;45404;-86
2023/04/04 13:18:42;;;;;;;;;3.67;3.67;;;;;29.69;18.06;69152.72;4900909;29;45529;-86
2023/04/04 13:21:09;;;;;;;;;1.67;1.67;;;;;29.58;17.82;69198.09;4901268;29;45454;-86
2023/04/04 13:23:38;;;;;;;;;1.50;1.00;;;;;29.44;18.70;69216.97;4900612;29;46351;-86
2023/04/04 13:26:05;;;;;;;;;2.33;1.67;;;;;29.44;19.13;69238.75;4900469;29;45449;-86
2023/04/04 13:28:31;;;;;;;;;1.25;1.25;;;;;29.27;18.88;69219.22;4900872;28;45348;-86
2023/04/04 13:30:56;;;;;;;;;1.00;1.00;;;;;28.77;19.04;69275.47;4900550;29;45501;-86
2023/04/04 13:33:22;;;;;;;;;2.00;2.00;;;;;28.81;18.81;69263.88;4903905;28;46610;-86
2023/04/04 13:35:49;;;;;;;;;4.00;1.00;;;;;28.51;19.00;69283.31;4903985;29;45528;-86
2023/04/04 13:38:15;;;;;;;;;1.33;1.33;;;;;28.23;18.64;69321.97;4904210;29;45653;-85
2023/04/04 13:40:40;;;;;;;;;2.67;2.00;;;;;27.82;18.96;69296.22;4904416;28;45716;-85
2023/04/04 13:45:42;;;;;;;;;2.33;2.33;;;;;27.08;19.59;69297.59;5331470;23;45755;-86
2023/04/04 13:48:08;;;;;;;;;2.00;2.00;;;;;26.80;19.49;69346.34;4942319;28;45411;-86
2023/04/04 13:50:37;;;;;;;;;2.00;2.00;;;;;26.41;19.63;69314.13;4942353;28;45307;-85
2023/04/04 13:53:06;;;;;;;;;5.33;5.00;;;;;26.09;18.55;69415.50;4942032;28;47192;-85
2023/04/04 13:55:31;;;;;;;;;1.67;1.67;;;;;25.84;19.59;69305.03;4941812;28;45355;-85
2023/04/04 13:57:56;;;;;;;;;3.00;3.00;;;;;25.51;19.51;69326.56;4941864;28;45370;-85
2023/04/04 14:00:22;;;;;;;;;2.67;1.00;;;;;25.22;20.30;69325.13;4941953;28;45372;-85
2023/04/04 14:02:50;;;;;;;;;2.00;2.00;;;;;24.96;20.35;69279.13;4942009;28;45838;-85
2023/04/04 14:05:16;;;;;;;;;2.00;1.00;;;;;24.74;20.02;69258.34;4942033;28;45429;-85
2023/04/04 14:07:42;;;;;;;;;4.00;4.00;;;;;24.21;20.25;69210.59;4941889;28;45337;-85
2023/04/04 14:10:10;;;;;;;;;1.67;1.67;;;;;24.31;20.75;69232.72;4941946;28;45346;-85
2023/04/04 14:12:35;;;;;;;;;1.00;1.00;;;;;24.10;21.06;69268.38;4941751;28;45689;-86
2023/04/04 14:15:00;;;;;;;;;1.33;1.33;;;;;23.90;20.81;69210.03;4940826;28;52626;-85
2023/04/04 14:17:26;;;;;;;;;1.00;1.00;;;;;23.73;21.25;69211.41;4942385;28;45448;-85
2023/04/04 14:19:51;;;;;;;;;4.00;4.00;;;;;23.58;20.89;69226.53;4941703;28;45578;-85
2023/04/04 14:22:16;;;;;;;;;2.00;2.00;;;;;23.35;20.79;69205.75;4940389;28;49629;-85
2023/04/04 14:24:42;;;;;;;;;1.33;1.00;;;;;23.14;21.30;69178.66;4940970;28;61411;-85
2023/04/04 14:27:07;;;;;;;;;2.33;2.33;;;;;23.08;22.16;69206.59;4941434;28;45374;-85
2023/04/04 14:29:32;;;;;;;;;2.00;2.00;;;;;23.02;21.77;69209.66;4941149;28;45350;-85
2023/04/04 14:31:57;;;;;;;;;5.00;2.00;;;;;22.84;21.92;69132.75;4940370;28;45985;-85
2023/04/04 14:34:25;;;;;;;;;1.67;1.67;;;;;22.69;22.37;69196.41;4941274;28;45350;-85
2023/04/04 14:36:51;;;;;;;;;1.00;1.00;;;;;22.66;22.14;69147.00;4941461;28;45369;-85
2023/04/04 14:39:16;;;;;;;;;2.00;2.00;;;;;22.54;22.23;69151.59;4941703;28;45274;-85
2023/04/04 14:47:50;;;;;;;;;1.00;1.00;;;;;20.75;22.53;68960.19;4941450;28;45346;-85
2023/04/04 14:50:15;;;;;;;;;1.00;1.00;;;;;22.08;22.48;69120.19;4941490;28;45298;-85
2023/04/04 14:52:41;;;;;;;;;1.00;1.00;;;;;22.02;23.19;69137.28;4941039;28;46224;-85
2023/04/04 14:55:07;;;;;;;;;0.00;0.00;;;;;21.91;22.62;69119.41;4941224;28;45410;-85
2023/04/04 14:57:33;;;;;;;;;1.67;0.67;;;;;21.75;22.86;69115.91;4941359;28;45374;-85
2023/04/04 14:59:58;;;;;;;;;2.00;1.33;;;;;21.82;22.32;69078.47;4941074;28;45454;-85
2023/04/04 15:02:23;;;;;;;;;1.00;1.00;;;;;21.57;22.95;69068.19;4940698;28;47193;-85
2023/04/04 15:04:49;;;;;;;;;1.00;1.00;;;;;21.56;22.85;69056.81;4940851;28;48762;-85
2023/04/04 15:07:15;;;;;;;;;4.67;3.33;;;;;21.53;22.48;69104.38;4941004;28;46109;-85
2023/04/04 15:09:40;;;;;;;;;2.00;2.00;;;;;21.17;22.54;69086.34;4941230;28;45504;-85
2023/04/04 15:12:06;;;;;;;;;2.33;1.33;;;;;21.21;23.15;69066.88;4940792;28;46040;-85
2023/04/04 15:14:31;;;;;;;;;1.00;1.00;;;;;21.26;23.27;69062.66;4940393;28;50209;-85
2023/04/04 15:16:56;;;;;;;;;2.00;2.00;;;;;21.19;23.60;69065.09;4940867;28;45544;-85
2023/04/04 15:19:22;;;;;;;;;1.00;1.00;;;;;21.15;23.84;69073.19;4941197;28;45417;-85
2023/04/04 15:21:48;;;;;;;;;4.00;3.00;;;;;20.99;23.35;69025.16;4940543;28;46468;-85
2023/04/04 15:24:13;;;;;;;;;1.00;1.00;;;;;21.00;23.80;69005.44;4940501;28;45444;-85
2023/04/04 15:26:38;;;;;;;;;1.00;1.00;;;;;21.00;24.10;69072.06;4940593;28;45492;-85
2023/04/04 15:29:04;;;;;;;;;1.00;1.00;;;;;20.75;23.52;69008.56;4939846;28;45492;-85
2023/04/04 15:31:30;;;;;;;;;0.67;0.67;;;;;20.81;23.68;69031.22;4939376;28;46149;-85
2023/04/04 15:34:00;;;;;;;;;1.00;1.00;;;;;20.83;23.55;68990.59;4927096;28;45419;-86
2023/04/04 15:36:27;;;;;;;;;1.67;1.67;;;;;20.75;24.01;69016.03;4940523;28;45406;-85
2023/04/04 15:38:53;;;;;;;;;1.00;1.00;;;;;20.62;23.39;69039.38;4950515;28;45444;-85
2023/04/04 15:41:19;;;;;;;;;1.00;1.00;;;;;20.22;24.01;68939.25;4958810;28;47042;-85
2023/04/04 15:43:45;;;;;;;;;2.00;2.00;;;;;19.78;23.93;69070.66;4959477;28;45223;-85
2023/04/04 15:46:10;;;;;;;;;1.67;1.67;;;;;20.50;24.27;69011.06;4959710;28;45317;-84
2023/04/04 15:48:35;;;;;;;;;1.00;1.00;;;;;19.77;24.29;68983.00;4959906;28;45400;-84
2023/04/04 15:51:02;;;;;;;;;1.33;1.33;;;;;20.32;24.93;68992.94;4955798;28;45244;-84
2023/04/04 15:53:31;;;;;;;;;2.00;2.00;;;;;20.11;24.73;69028.22;4936662;28;46369;-87
2023/04/04 15:55:57;;;;;;;;;2.00;2.00;;;;;20.01;25.05;69000.19;4939001;28;45525;-86
2023/04/04 15:58:24;;;;;;;;;1.00;1.00;;;;;19.93;25.13;68918.81;4940553;28;45601;-86
2023/04/04 16:00:50;;;;;;;;;2.00;2.00;;;;;19.16;25.61;68880.03;4939753;28;45429;-85
2023/04/04 16:04:06;;;;;;;;;1.00;1.00;;;;;20.01;25.12;68986.78;4939183;28;45632;-91
2023/04/04 16:06:32;;;;;;;;;2.00;2.00;;;;;19.39;25.47;68818.28;4922248;28;45436;-91
2023/04/04 16:08:57;;;;;;;;;2.67;2.67;;;;;19.88;25.65;68960.56;4926190;28;45746;-88
2023/04/04 16:11:22;;;;;;;;;1.33;1.33;;;;;19.81;25.68;68971.66;4926732;28;45983;-87
2023/04/04 16:13:48;;;;;;;;;1.33;1.00;;;;;19.49;25.81;68907.94;4931654;28;45307;-85
2023/04/04 16:16:14;;;;;;;;;1.67;1.67;;;;;19.57;25.89;68935.63;4921810;28;45454;-84
2023/04/04 16:18:54;;;;;;;;;1.67;1.00;;;;;19.50;25.94;68927.91;4928296;28;45583;-88
2023/04/04 16:21:38;;;;;;;;;2.00;0.33;;;;;19.29;25.91;69110.00;4931132;28;46607;-92
2023/04/04 16:24:03;;;;;;;;;2.00;2.00;;;;;19.32;26.07;68906.50;4938990;23;45528;-90
2023/04/04 16:26:29;;;;;;;;;2.00;2.00;;;;;18.94;26.24;68787.47;4939705;28;45366;-93
2023/04/04 16:28:54;;;;;;;;;2.00;2.00;;;;;19.30;26.56;68893.41;4956933;28;45374;-91
2023/04/04 16:31:20;;;;;;;;;3.33;2.00;;;;;18.70;26.36;68859.28;4936841;28;47563;-90
2023/04/04 16:33:46;;;;;;;;;2.00;2.00;;;;;18.99;26.28;68919.41;4937289;28;45483;-90
2023/04/04 16:36:12;;;;;;;;;1.00;1.00;;;;;18.89;26.73;68827.09;4934170;28;45519;-90
2023/04/04 16:38:37;;;;;;;;;2.00;2.00;;;;;18.73;26.64;68793.22;4937468;28;45496;-89
2023/04/04 16:41:03;;;;;;;;;3.00;1.67;;;;;18.56;26.97;68877.44;4937130;28;45668;-89
2023/04/04 16:43:29;;;;;;;;;2.00;2.00;;;;;18.54;27.26;68861.69;4952366;28;46004;-88
2023/04/04 16:45:54;;;;;;;;;4.00;2.00;;;;;18.89;27.08;68888.72;4930160;28;45651;-88
2023/04/04 16:48:19;;;;;;;;;2.00;2.00;;;;;18.84;27.40;68840.50;4939155;28;45722;-88
2023/04/04 16:50:45;;;;;;;;;2.00;2.00;;;;;18.59;27.24;68837.56;4938935;28;45800;-88
2023/04/04 16:53:10;;;;;;;;;1.00;1.00;;;;;18.72;27.51;68853.63;4937376;28;45852;-87
2023/04/04 16:55:36;;;;;;;;;2.00;2.00;;;;;18.39;27.40;68857.25;4938392;28;45664;-89